Time;durP1;ratioP1;P1;durP2;ratioP2;P2;SDS_P1;SDS_P2;PMS_P1;PMS_P2;Temp;Humidity;BMP_temperature;BMP_pressure;BME280_temperature;BME280_humidity;BME280_pressure;Samples;Min_cycle;Max_cycle;Signal;HPM_P1;HPM_P2
2021/06/17 00:03:15;;;;;;;11.2;9.7;;;;;;;15.38;100;98854.34;;;;
2021/06/17 00:13:14;;;;;;;11.1;9.9;;;;;;;15.21;100;98850.97;;;;
2021/06/17 00:23:13;;;;;;;17;12.7;;;;;;;15.04;100;98847.27;;;;
2021/06/17 00:33:12;;;;;;;11.8;10.5;;;;;;;14.87;100;98857.43;;;;
2021/06/17 00:43:13;;;;;;;14.7;10.5;;;;;;;14.7;100;98855.62;;;;
2021/06/17 00:53:10;;;;;;;15.5;11.8;;;;;;;14.54;100;98862.73;;;;
2021/06/17 01:03:09;;;;;;;14;11.9;;;;;;;14.33;100;98859.13;;;;
2021/06/17 01:13:08;;;;;;;17.5;12.7;;;;;;;14.19;100;98856.63;;;;
2021/06/17 01:23:07;;;;;;;16.3;14.6;;;;;;;13.96;100;98866.88;;;;
2021/06/17 01:33:06;;;;;;;16.7;14.2;;;;;;;13.8;100;98857.67;;;;
2021/06/17 01:43:05;;;;;;;25.7;17.1;;;;;;;13.71;100;98853.39;;;;
2021/06/17 01:53:04;;;;;;;16.1;14.4;;;;;;;13.67;100;98858.66;;;;
2021/06/17 02:03:04;;;;;;;15.6;14;;;;;;;13.55;100;98851.17;;;;
2021/06/17 02:13:02;;;;;;;16.3;13.7;;;;;;;13.37;100;98859.61;;;;
2021/06/17 02:23:03;;;;;;;17.6;15.8;;;;;;;13.34;100;98854.84;;;;
2021/06/17 02:33:05;;;;;;;15.6;13.9;;;;;;;13.37;100;98857.7;;;;
2021/06/17 02:43:02;;;;;;;16.8;15.2;;;;;;;13.36;100;98856.1;;;;
2021/06/17 02:52:57;;;;;;;21;13.5;;;;;;;13.22;100;98852.78;;;;
2021/06/17 03:02:56;;;;;;;16.5;14.5;;;;;;;13.39;100;98858.2;;;;
2021/06/17 03:12:55;;;;;;;15.8;14.2;;;;;;;13.48;100;98872.52;;;;
2021/06/17 03:22:54;;;;;;;16.5;14.2;;;;;;;13.65;100;98863.58;;;;
2021/06/17 03:32:53;;;;;;;18.2;13.9;;;;;;;13.9;100;98883.63;;;;
2021/06/17 03:42:52;;;;;;;13;10;;;;;;;14.19;100;98874.8;;;;
2021/06/17 03:52:51;;;;;;;15.5;11.5;;;;;;;14.52;100;98887.45;;;;
2021/06/17 04:02:50;;;;;;;18.7;16.3;;;;;;;14.83;100;98867.34;;;;
2021/06/17 04:12:49;;;;;;;23.4;20.7;;;;;;;15.33;100;98876.28;;;;
2021/06/17 04:22:48;;;;;;;19.9;17.9;;;;;;;15.76;100;98878.64;;;;
2021/06/17 04:32:47;;;;;;;20.1;16.5;;;;;;;16.23;100;98876.42;;;;
2021/06/17 04:42:47;;;;;;;16.2;14.5;;;;;;;16.95;100;98878.4;;;;
2021/06/17 04:52:46;;;;;;;16.4;13.4;;;;;;;17.65;100;98876.22;;;;
2021/06/17 05:02:45;;;;;;;13.4;11;;;;;;;17.99;100;98891.17;;;;
2021/06/17 05:12:45;;;;;;;14.2;11.7;;;;;;;18.49;100;98904.99;;;;
2021/06/17 05:22:44;;;;;;;14.9;12.6;;;;;;;19.2;100;98911.37;;;;
2021/06/17 05:32:44;;;;;;;9.8;7.3;;;;;;;19.68;100;98907.39;;;;
2021/06/17 05:42:44;;;;;;;11.6;8.5;;;;;;;19.99;100;98913.47;;;;
2021/06/17 05:52:47;;;;;;;11.3;8.2;;;;;;;20.59;100;98928.3;;;;
2021/06/17 06:02:44;;;;;;;13.4;10;;;;;;;21.13;100;98937.42;;;;
2021/06/17 06:12:44;;;;;;;17.9;8.5;;;;;;;21.65;100;98953.06;;;;
2021/06/17 06:22:44;;;;;;;10.7;7.4;;;;;;;21.84;100;98945.47;;;;
2021/06/17 06:32:44;;;;;;;10.9;8.9;;;;;;;22.12;100;98957.98;;;;
2021/06/17 06:42:44;;;;;;;15.1;8.8;;;;;;;22.29;100;98968.38;;;;
2021/06/17 06:52:44;;;;;;;10;7.5;;;;;;;22.64;100;98957.75;;;;
2021/06/17 07:02:44;;;;;;;12.8;8.8;;;;;;;22.86;100;98967.02;;;;
2021/06/17 07:12:44;;;;;;;12.4;8.9;;;;;;;23.32;100;98981.14;;;;
2021/06/17 07:22:45;;;;;;;10.6;7.6;;;;;;;23.66;100;98963.3;;;;
2021/06/17 07:32:45;;;;;;;10.5;7.8;;;;;;;23.75;100;98969.23;;;;
2021/06/17 07:42:47;;;;;;;10.4;7.4;;;;;;;24.26;99.27441;98965.56;;;;
2021/06/17 07:52:46;;;;;;;10.9;7.1;;;;;;;24.34;96.68848;98959.66;;;;
2021/06/17 08:02:46;;;;;;;10.3;5.3;;;;;;;24.77;94.54395;98959.75;;;;
2021/06/17 08:12:47;;;;;;;8.8;6.1;;;;;;;24.88;85.40625;98966.09;;;;
2021/06/17 08:22:47;;;;;;;14.4;5.9;;;;;;;24.99;83.96191;98962.14;;;;
2021/06/17 08:32:49;;;;;;;8.7;4.5;;;;;;;25.22;81.25586;98960.95;;;;
2021/06/17 08:42:48;;;;;;;7.9;4.7;;;;;;;25.54;81.6416;98964.5;;;;
2021/06/17 08:52:49;;;;;;;7;4.4;;;;;;;25.55;75.91309;98982.61;;;;
2021/06/17 09:02:50;;;;;;;8.4;5.2;;;;;;;25.47;78.79395;98972.75;;;;
2021/06/17 09:12:50;;;;;;;7.8;5.5;;;;;;;25.48;82.10742;98983.38;;;;
2021/06/17 09:22:51;;;;;;;8.8;5.7;;;;;;;25.63;80.80469;98978.66;;;;
2021/06/17 09:32:53;;;;;;;12.4;5.2;;;;;;;25.97;78.75195;98976.18;;;;
2021/06/17 09:42:52;;;;;;;12.8;4.3;;;;;;;26.44;76.35547;98969.3;;;;
2021/06/17 09:52:53;;;;;;;8.6;4.6;;;;;;;26.13;70.93066;98964.69;;;;
2021/06/17 10:02:54;;;;;;;8.9;4.9;;;;;;;26.17;73.31543;98957.97;;;;
2021/06/17 10:12:55;;;;;;;7.1;4.7;;;;;;;26.32;72.26367;98956.71;;;;
2021/06/17 10:22:55;;;;;;;7.2;4.5;;;;;;;26.48;73.09668;98951.47;;;;
2021/06/17 10:32:58;;;;;;;8.9;4.5;;;;;;;26.86;68.59473;98957.19;;;;
2021/06/17 10:42:57;;;;;;;10.3;4.9;;;;;;;27.1;71.75195;98947.11;;;;
2021/06/17 10:52:58;;;;;;;6.1;4.2;;;;;;;27.28;70.45508;98944.97;;;;
2021/06/17 11:03:22;;;;;;;7.3;4.4;;;;;;;27.13;68.27148;98944.31;;;;
2021/06/17 11:13:00;;;;;;;15.4;6.5;;;;;;;27.74;67.46875;98936.18;;;;
2021/06/17 11:23:02;;;;;;;8.7;4.9;;;;;;;27.64;66.78516;98940.65;;;;
2021/06/17 11:33:22;;;;;;;7.6;4.3;;;;;;;27.61;66.82715;98941.48;;;;
2021/06/17 11:43:03;;;;;;;8.6;4.4;;;;;;;27.35;65.80176;98931.82;;;;
2021/06/17 11:53:03;;;;;;;7.5;5.5;;;;;;;27.74;65.66992;98925.89;;;;
2021/06/17 12:03:04;;;;;;;6.6;3.9;;;;;;;27.66;65.84668;98913.34;;;;
2021/06/17 12:13:05;;;;;;;6.3;4.5;;;;;;;27.48;63.07813;98907.22;;;;
2021/06/17 12:23:08;;;;;;;8.4;4.9;;;;;;;27.76;62.52832;98901.35;;;;
2021/06/17 12:33:08;;;;;;;7.4;5;;;;;;;27.82;66.37598;98902.45;;;;
2021/06/17 12:43:07;;;;;;;14.5;5.4;;;;;;;27.67;63.13867;98897.48;;;;
2021/06/17 12:53:08;;;;;;;6.4;4.7;;;;;;;28.19;63.64844;98892.48;;;;
2021/06/17 13:03:09;;;;;;;7.8;5.3;;;;;;;28.41;65.83789;98891.77;;;;
2021/06/17 13:13:16;;;;;;;6.7;4.6;;;;;;;28.42;62.30078;98890.57;;;;
2021/06/17 13:23:15;;;;;;;13.6;7.1;;;;;;;28.58;65.27246;98895.47;;;;
2021/06/17 13:33:12;;;;;;;9.4;5.8;;;;;;;28.71;63.5918;98902.02;;;;
2021/06/17 13:43:14;;;;;;;11.7;6.5;;;;;;;28.36;64.82715;98896.98;;;;
2021/06/17 13:53:14;;;;;;;9.4;5.9;;;;;;;29.08;64.76563;98903.78;;;;
2021/06/17 14:03:15;;;;;;;10;6.7;;;;;;;29.27;64.68652;98883.63;;;;
2021/06/17 14:13:16;;;;;;;9.9;5.8;;;;;;;29.89;62.41992;98877.23;;;;
2021/06/17 14:23:17;;;;;;;8.7;6.7;;;;;;;29.51;61.17285;98873.23;;;;
2021/06/17 14:33:19;;;;;;;8.9;5.4;;;;;;;28.86;62.44238;98866.5;;;;
2021/06/17 14:43:20;;;;;;;8;5.4;;;;;;;28.92;59.26074;98875.91;;;;
2021/06/17 14:53:21;;;;;;;9.4;5.8;;;;;;;29.28;59.89844;98870.53;;;;
2021/06/17 15:03:22;;;;;;;8.4;5.4;;;;;;;30.25;57.23926;98855;;;;
2021/06/17 15:13:23;;;;;;;6.6;5.5;;;;;;;32.11;53.41992;98849.68;;;;
2021/06/17 15:23:25;;;;;;;25.2;6.3;;;;;;;32.11;50.12598;98835.73;;;;
2021/06/17 15:33:26;;;;;;;7.3;4.1;;;;;;;33.45;43.2373;98838.79;;;;
2021/06/17 15:43:28;;;;;;;9.8;5.2;;;;;;;33.11;40.63867;98834.82;;;;
2021/06/17 15:53:30;;;;;;;7;4.2;;;;;;;31.94;42.65332;98841.37;;;;
2021/06/17 16:03:32;;;;;;;6.4;4.9;;;;;;;31.43;42.5332;98834.11;;;;
2021/06/17 16:13:36;;;;;;;5.9;4;;;;;;;30.55;45.3125;98837.21;;;;
2021/06/17 16:23:36;;;;;;;7.5;4.5;;;;;;;30.88;43.76953;98835.19;;;;
2021/06/17 16:33:37;;;;;;;8.2;4.5;;;;;;;30;44.67383;98837.3;;;;
2021/06/17 16:43:39;;;;;;;7.4;4.7;;;;;;;29.77;45.8291;98829.85;;;;
2021/06/17 16:53:40;;;;;;;7.7;3.8;;;;;;;29.5;45.93359;98827.25;;;;
2021/06/17 17:03:42;;;;;;;7.7;4.7;;;;;;;29.21;46.65137;98840.88;;;;
2021/06/17 17:13:43;;;;;;;6.6;4.2;;;;;;;27.92;48.94629;98840.58;;;;
2021/06/17 17:23:44;;;;;;;7.1;4;;;;;;;26.92;50.90332;98840.16;;;;
2021/06/17 17:33:45;;;;;;;10.6;4.9;;;;;;;27.45;50.10059;98858.21;;;;
2021/06/17 17:43:46;;;;;;;8;4.6;;;;;;;28.07;48.44043;98857.03;;;;
2021/06/17 17:53:47;;;;;;;6.4;4.3;;;;;;;28.12;47.86621;98860.11;;;;
2021/06/17 18:03:49;;;;;;;7.6;4.4;;;;;;;27.17;49.6084;98864.02;;;;
2021/06/17 18:13:49;;;;;;;7;4.2;;;;;;;25.79;53.30566;98878.83;;;;
2021/06/17 18:23:50;;;;;;;6.6;4.2;;;;;;;24.57;56.98242;98873.11;;;;
2021/06/17 18:33:51;;;;;;;13.6;6.1;;;;;;;23.88;60.32227;98887.13;;;;
2021/06/17 18:43:51;;;;;;;9.3;4.9;;;;;;;23.21;63.50977;98901.31;;;;
2021/06/17 18:53:51;;;;;;;7.1;4.8;;;;;;;22.65;65.6084;98904.39;;;;
2021/06/17 19:03:51;;;;;;;8.2;5.1;;;;;;;22.2;67.9834;98902.78;;;;
2021/06/17 19:13:51;;;;;;;9.1;5.9;;;;;;;21.83;69.58594;98921.92;;;;
2021/06/17 19:23:51;;;;;;;8.1;6.7;;;;;;;21.48;72.26563;98937.95;;;;
2021/06/17 19:33:51;;;;;;;11.8;6.7;;;;;;;21.17;74.33398;98925.36;;;;
2021/06/17 19:43:52;;;;;;;8;6.1;;;;;;;20.93;75.47266;98926.51;;;;
2021/06/17 19:53:53;;;;;;;8.3;5.5;;;;;;;20.71;76.71875;98916.38;;;;
2021/06/17 20:03:51;;;;;;;13.2;5.5;;;;;;;20.57;78.32324;98919.67;;;;
2021/06/17 20:13:51;;;;;;;9.7;5.3;;;;;;;20.39;79.68555;98912.3;;;;
2021/06/17 20:23:51;;;;;;;6.8;5.3;;;;;;;20.25;80.31543;98922.95;;;;
2021/06/17 20:33:51;;;;;;;15.2;5.8;;;;;;;19.94;83.90918;98910.25;;;;
2021/06/17 20:43:50;;;;;;;7.5;4.5;;;;;;;19.75;84.19434;98921.2;;;;
2021/06/17 20:53:50;;;;;;;9.4;5.7;;;;;;;19.41;86.46387;98914.61;;;;
2021/06/17 21:03:50;;;;;;;8.5;5.8;;;;;;;19.23;89.04297;98916.15;;;;
2021/06/17 21:13:49;;;;;;;8.9;5.1;;;;;;;18.98;90.57617;98921.83;;;;
2021/06/17 21:23:49;;;;;;;8.6;5;;;;;;;18.78;91.85059;98924.84;;;;
2021/06/17 21:33:50;;;;;;;9.2;6.1;;;;;;;18.55;92.22754;98913.73;;;;
2021/06/17 21:43:48;;;;;;;16.8;5.8;;;;;;;18.39;93.9209;98921.09;;;;
2021/06/17 21:53:48;;;;;;;8.4;5.5;;;;;;;18.22;94.11328;98922.22;;;;
2021/06/17 22:03:47;;;;;;;8.6;6.3;;;;;;;17.85;94.7207;98913.4;;;;
2021/06/17 22:13:47;;;;;;;9.2;5.8;;;;;;;17.56;98.03223;98916.47;;;;
2021/06/17 22:23:46;;;;;;;9.3;6.1;;;;;;;17.21;100;98912.65;;;;
2021/06/17 22:33:46;;;;;;;8.4;5.9;;;;;;;16.99;100;98905.74;;;;
2021/06/17 22:43:45;;;;;;;10.4;6.1;;;;;;;16.8;100;98928.08;;;;
2021/06/17 22:53:45;;;;;;;9.2;6.2;;;;;;;16.65;100;98915.16;;;;
2021/06/17 23:03:44;;;;;;;8.2;5.2;;;;;;;16.51;100;98917.38;;;;
2021/06/17 23:13:43;;;;;;;9.4;6.5;;;;;;;16.28;100;98921.66;;;;
2021/06/17 23:23:43;;;;;;;8.9;6.4;;;;;;;16.01;100;98904.79;;;;
2021/06/17 23:33:42;;;;;;;10.6;6.2;;;;;;;15.93;100;98904.89;;;;
2021/06/17 23:43:41;;;;;;;6.9;5.3;;;;;;;15.78;100;98905.5;;;;
2021/06/17 23:53:40;;;;;;;9.1;5.8;;;;;;;15.67;100;98898.88;;;;
